Time,TemperatureF,DewpointF,PressureIn,WindDirection,WindDirectionDegrees,WindSpeedMPH,WindSpeedGustMPH,Humidity,HourlyPrecipIn,Conditions,Clouds,dailyrainin,SolarRadiationWatts/m^2,SoftwareType,DateUTC
2013-02-10 00:01:00,15.0,13.0,-100.00,North,6,6.0,14.0,91,0.00,,,0.00,0.000000,,2013-02-10 07:01:00,
2013-02-10 00:11:00,15.0,13.0,-100.00,North,6,6.0,14.0,91,0.00,,,0.00,0.000000,,2013-02-10 07:11:00,
2013-02-10 00:21:00,15.0,13.0,-100.00,North,6,6.0,14.0,91,0.00,,,0.00,0.000000,,2013-02-10 07:21:00,
2013-02-10 00:31:00,15.0,13.0,-100.00,North,6,6.0,14.0,91,0.00,,,0.00,0.000000,,2013-02-10 07:31:00,
2013-02-10 00:40:00,15.0,13.0,-100.00,NNW,348,5.0,14.0,90,0.00,,,0.00,0.000000,,2013-02-10 07:40:00,
2013-02-10 01:01:00,15.0,13.0,-100.00,NNW,348,5.0,14.0,90,0.00,,,0.00,0.000000,,2013-02-10 08:01:00,
2013-02-10 01:11:00,15.0,13.0,-100.00,NNW,348,5.0,14.0,90,0.00,,,0.00,0.000000,,2013-02-10 08:11:00,
2013-02-10 01:21:00,15.0,13.0,-100.00,NNW,348,5.0,14.0,90,0.00,,,0.00,0.000000,,2013-02-10 08:21:00,
2013-02-10 01:31:00,15.0,13.0,-100.00,NNW,348,5.0,14.0,90,0.00,,,0.00,0.000000,,2013-02-10 08:31:00,
2013-02-10 01:40:00,14.0,12.0,-100.00,North,1,7.0,17.0,90,0.00,,,0.00,0.000000,,2013-02-10 08:40:00,
2013-02-10 02:02:00,14.0,12.0,-100.00,North,1,7.0,17.0,90,0.00,,,0.00,0.000000,,2013-02-10 09:02:00,
2013-02-10 02:11:00,14.0,12.0,-100.00,North,1,7.0,17.0,90,0.00,,,0.00,0.000000,,2013-02-10 09:11:00,
2013-02-10 02:21:00,14.0,12.0,-100.00,North,1,7.0,17.0,90,0.00,,,0.00,0.000000,,2013-02-10 09:21:00,
2013-02-10 02:31:00,14.0,12.0,-100.00,North,1,7.0,17.0,90,0.00,,,0.00,0.000000,,2013-02-10 09:31:00,
2013-02-10 02:40:00,13.0,10.0,-100.00,WSW,255,5.0,16.0,89,0.00,,,0.00,0.000000,,2013-02-10 09:40:00,
2013-02-10 03:01:00,13.0,10.0,-100.00,WSW,255,5.0,16.0,89,0.00,,,0.00,0.000000,,2013-02-10 10:01:00,
2013-02-10 03:11:00,13.0,10.0,-100.00,WSW,255,5.0,16.0,89,0.00,,,0.00,0.000000,,2013-02-10 10:11:00,
2013-02-10 03:21:00,13.0,10.0,-100.00,WSW,255,5.0,16.0,89,0.00,,,0.00,0.000000,,2013-02-10 10:21:00,
2013-02-10 03:31:00,13.0,10.0,-100.00,WSW,255,5.0,16.0,89,0.00,,,0.00,0.000000,,2013-02-10 10:31:00,
2013-02-10 03:40:00,12.0,9.0,-100.00,NNE,23,4.0,17.0,89,0.00,,,0.00,0.000000,,2013-02-10 10:40:00,
2013-02-10 04:01:00,12.0,9.0,-100.00,NNE,23,4.0,17.0,89,0.00,,,0.00,0.000000,,2013-02-10 11:01:00,
2013-02-10 04:11:00,12.0,9.0,-100.00,NNE,23,4.0,17.0,89,0.00,,,0.00,0.000000,,2013-02-10 11:11:00,
2013-02-10 04:21:00,12.0,9.0,-100.00,NNE,23,4.0,17.0,89,0.00,,,0.00,0.000000,,2013-02-10 11:21:00,
2013-02-10 04:31:00,12.0,9.0,-100.00,NNE,23,4.0,17.0,89,0.00,,,0.00,0.000000,,2013-02-10 11:31:00,
2013-02-10 04:40:00,12.0,9.0,-100.00,NNE,20,4.0,12.0,89,0.00,,,0.00,0.000000,,2013-02-10 11:40:00,
2013-02-10 05:01:00,12.0,9.0,-100.00,NNE,20,4.0,12.0,89,0.00,,,0.00,0.000000,,2013-02-10 12:01:00,
2013-02-10 05:12:00,12.0,9.0,-100.00,NNE,20,4.0,12.0,89,0.00,,,0.00,0.000000,,2013-02-10 12:12:00,
2013-02-10 05:21:00,12.0,9.0,-100.00,NNE,20,4.0,12.0,89,0.00,,,0.00,0.000000,,2013-02-10 12:21:00,
2013-02-10 05:32:00,12.0,9.0,-100.00,NNE,20,4.0,12.0,89,0.00,,,0.00,0.000000,,2013-02-10 12:32:00,
2013-02-10 07:40:00,9.0,6.0,-100.00,North,10,3.0,10.0,88,-99.99,,,-99.99,0.000000,,2013-02-10 14:40:00,
2013-02-10 08:01:00,9.0,6.0,-100.00,North,10,3.0,10.0,88,-99.99,,,-99.99,0.000000,,2013-02-10 15:01:00,
2013-02-10 08:11:00,9.0,6.0,-100.00,North,10,3.0,10.0,88,-99.99,,,-99.99,0.000000,,2013-02-10 15:11:00,
2013-02-10 08:21:00,9.0,6.0,-100.00,North,10,3.0,10.0,88,-99.99,,,-99.99,0.000000,,2013-02-10 15:21:00,
2013-02-10 08:31:00,9.0,6.0,-100.00,North,10,3.0,10.0,88,-99.99,,,-99.99,0.000000,,2013-02-10 15:31:00,
2013-02-10 08:40:00,9.0,6.0,-100.00,SE,133,0.0,7.0,87,0.00,,,0.00,7.000000,,2013-02-10 15:40:00,
2013-02-10 09:01:00,9.0,6.0,-100.00,SE,133,0.0,7.0,87,0.00,,,0.00,7.000000,,2013-02-10 16:01:00,
2013-02-10 09:11:00,9.0,6.0,-100.00,SE,133,0.0,7.0,87,0.00,,,0.00,7.000000,,2013-02-10 16:11:00,
2013-02-10 09:21:00,9.0,6.0,-100.00,SE,133,0.0,7.0,87,0.00,,,0.00,7.000000,,2013-02-10 16:21:00,
2013-02-10 09:31:00,9.0,6.0,-100.00,SE,133,0.0,7.0,87,0.00,,,0.00,7.000000,,2013-02-10 16:31:00,
2013-02-10 09:40:00,12.0,9.0,-100.00,North,1,1.0,3.0,88,0.00,,,0.00,25.000000,,2013-02-10 16:40:00,
2013-02-10 10:01:00,12.0,9.0,-100.00,North,1,1.0,3.0,88,0.00,,,0.00,25.000000,,2013-02-10 17:01:00,
2013-02-10 10:11:00,12.0,9.0,-100.00,North,1,1.0,3.0,88,0.00,,,0.00,25.000000,,2013-02-10 17:11:00,
2013-02-10 10:21:00,12.0,9.0,-100.00,North,1,1.0,3.0,88,0.00,,,0.00,25.000000,,2013-02-10 17:21:00,
2013-02-10 10:31:00,12.0,9.0,-100.00,North,1,1.0,3.0,88,0.00,,,0.00,25.000000,,2013-02-10 17:31:00,
2013-02-10 10:40:00,15.0,12.0,-100.00,NNW,341,0.0,2.0,89,0.00,,,0.00,37.000000,,2013-02-10 17:40:00,
2013-02-10 11:02:00,15.0,12.0,-100.00,NNW,341,0.0,2.0,89,0.00,,,0.00,37.000000,,2013-02-10 18:02:00,
2013-02-10 11:11:00,15.0,12.0,-100.00,NNW,341,0.0,2.0,89,0.00,,,0.00,37.000000,,2013-02-10 18:11:00,
2013-02-10 11:21:00,15.0,12.0,-100.00,NNW,341,0.0,2.0,89,0.00,,,0.00,37.000000,,2013-02-10 18:21:00,
2013-02-10 11:31:00,15.0,12.0,-100.00,NNW,341,0.0,2.0,89,0.00,,,0.00,37.000000,,2013-02-10 18:31:00,
2013-02-10 11:40:00,18.0,15.0,-100.00,NNW,339,0.0,1.0,89,0.00,,,0.00,62.000000,,2013-02-10 18:40:00,
2013-02-10 12:01:00,18.0,15.0,-100.00,NNW,339,0.0,1.0,89,0.00,,,0.00,62.000000,,2013-02-10 19:01:00,
2013-02-10 12:11:00,18.0,15.0,-100.00,NNW,339,0.0,1.0,89,0.00,,,0.00,62.000000,,2013-02-10 19:11:00,
2013-02-10 12:21:00,18.0,15.0,-100.00,NNW,339,0.0,1.0,89,0.00,,,0.00,62.000000,,2013-02-10 19:21:00,
2013-02-10 12:32:00,18.0,15.0,-100.00,NNW,339,0.0,1.0,89,0.00,,,0.00,62.000000,,2013-02-10 19:32:00,
2013-02-10 13:02:00,23.0,21.0,-100.00,NNE,21,0.0,2.0,90,0.00,,,0.00,106.000000,,2013-02-10 20:02:00,
2013-02-10 13:32:00,23.0,21.0,-100.00,NNE,21,0.0,2.0,90,0.00,,,0.00,106.000000,,2013-02-10 20:32:00,
2013-02-10 13:40:00,20.0,16.0,-100.00,ENE,70,1.0,4.0,85,0.00,,,0.00,81.000000,,2013-02-10 20:40:00,
2013-02-10 14:02:00,20.0,16.0,-100.00,ENE,70,1.0,4.0,85,0.00,,,0.00,81.000000,,2013-02-10 21:02:00,
2013-02-10 14:11:00,20.0,16.0,-100.00,ENE,70,1.0,4.0,85,0.00,,,0.00,81.000000,,2013-02-10 21:11:00,
2013-02-10 14:21:00,20.0,16.0,-100.00,ENE,70,1.0,4.0,85,0.00,,,0.00,81.000000,,2013-02-10 21:21:00,
2013-02-10 14:32:00,20.0,16.0,-100.00,ENE,70,1.0,4.0,85,0.00,,,0.00,81.000000,,2013-02-10 21:32:00,
2013-02-10 14:40:00,17.0,14.0,-100.00,SSW,203,0.0,2.0,88,0.00,,,0.00,43.000000,,2013-02-10 21:40:00,
2013-02-10 15:11:00,17.0,14.0,-100.00,SSW,203,0.0,2.0,88,0.00,,,0.00,43.000000,,2013-02-10 22:11:00,
2013-02-10 15:21:00,17.0,14.0,-100.00,SSW,203,0.0,2.0,88,0.00,,,0.00,43.000000,,2013-02-10 22:21:00,
2013-02-10 15:32:00,17.0,14.0,-100.00,SSW,203,0.0,2.0,88,0.00,,,0.00,43.000000,,2013-02-10 22:32:00,
2013-02-10 15:40:00,20.0,18.0,-100.00,NNE,24,0.0,1.0,91,0.00,,,0.00,47.000000,,2013-02-10 22:40:00,
2013-02-10 16:02:00,20.0,18.0,-100.00,NNE,24,0.0,1.0,91,0.00,,,0.00,47.000000,,2013-02-10 23:02:00,
2013-02-10 16:11:00,20.0,18.0,-100.00,NNE,24,0.0,1.0,91,0.00,,,0.00,47.000000,,2013-02-10 23:11:00,
2013-02-10 16:21:00,20.0,18.0,-100.00,NNE,24,0.0,1.0,91,0.00,,,0.00,47.000000,,2013-02-10 23:21:00,
2013-02-10 16:31:00,20.0,18.0,-100.00,NNE,24,0.0,1.0,91,0.00,,,0.00,47.000000,,2013-02-10 23:31:00,
2013-02-10 16:40:00,16.0,13.0,-100.00,SSW,208,0.0,2.0,86,-99.99,,,0.00,36.000000,,2013-02-10 23:40:00,
2013-02-10 17:01:00,16.0,13.0,-100.00,SSW,208,0.0,2.0,86,-99.99,,,0.00,36.000000,,2013-02-11 00:01:00,
2013-02-10 17:11:00,16.0,13.0,-100.00,SSW,208,0.0,2.0,86,-99.99,,,0.00,36.000000,,2013-02-11 00:11:00,
2013-02-10 17:22:00,16.0,13.0,-100.00,SSW,208,0.0,2.0,86,-99.99,,,0.00,36.000000,,2013-02-11 00:22:00,
2013-02-10 17:31:00,16.0,13.0,-100.00,SSW,208,0.0,2.0,86,-99.99,,,0.00,36.000000,,2013-02-11 00:31:00,
2013-02-10 17:40:00,6.0,2.0,-100.00,South,179,1.0,3.0,83,0.00,,,0.00,19.000000,,2013-02-11 00:40:00,
2013-02-10 18:01:00,6.0,2.0,-100.00,South,179,1.0,3.0,83,0.00,,,0.00,19.000000,,2013-02-11 01:01:00,
2013-02-10 18:11:00,6.0,2.0,-100.00,South,179,1.0,3.0,83,0.00,,,0.00,19.000000,,2013-02-11 01:11:00,
2013-02-10 18:21:00,6.0,2.0,-100.00,South,179,1.0,3.0,83,0.00,,,0.00,19.000000,,2013-02-11 01:21:00,
2013-02-10 18:32:00,6.0,2.0,-100.00,South,179,1.0,3.0,83,0.00,,,0.00,19.000000,,2013-02-11 01:32:00,
2013-02-10 18:40:00,2.0,-1.0,-100.00,SW,223,1.0,2.0,85,0.00,,,0.00,0.000000,,2013-02-11 01:40:00,
2013-02-10 19:01:00,2.0,-1.0,-100.00,SW,223,1.0,2.0,85,0.00,,,0.00,0.000000,,2013-02-11 02:01:00,
2013-02-10 19:11:00,2.0,-1.0,-100.00,SW,223,1.0,2.0,85,0.00,,,0.00,0.000000,,2013-02-11 02:11:00,
2013-02-10 19:21:00,2.0,-1.0,-100.00,SW,223,1.0,2.0,85,0.00,,,0.00,0.000000,,2013-02-11 02:21:00,
2013-02-10 19:31:00,2.0,-1.0,-100.00,SW,223,1.0,2.0,85,0.00,,,0.00,0.000000,,2013-02-11 02:31:00,
2013-02-10 19:40:00,5.0,2.0,-100.00,West,266,5.0,8.0,86,0.00,,,0.00,0.000000,,2013-02-11 02:40:00,
2013-02-10 20:01:00,5.0,2.0,-100.00,West,266,5.0,8.0,86,0.00,,,0.00,0.000000,,2013-02-11 03:01:00,
2013-02-10 20:11:00,5.0,2.0,-100.00,West,266,5.0,8.0,86,0.00,,,0.00,0.000000,,2013-02-11 03:11:00,
2013-02-10 20:21:00,5.0,2.0,-100.00,West,266,5.0,8.0,86,0.00,,,0.00,0.000000,,2013-02-11 03:21:00,
2013-02-10 20:31:00,5.0,2.0,-100.00,West,266,5.0,8.0,86,0.00,,,0.00,0.000000,,2013-02-11 03:31:00,
2013-02-10 20:40:00,5.0,2.0,-100.00,WNW,286,7.0,13.0,86,0.00,,,0.00,0.000000,,2013-02-11 03:40:00,
2013-02-10 21:01:00,5.0,2.0,-100.00,WNW,286,7.0,13.0,86,0.00,,,0.00,0.000000,,2013-02-11 04:01:00,
2013-02-10 21:11:00,5.0,2.0,-100.00,WNW,286,7.0,13.0,86,0.00,,,0.00,0.000000,,2013-02-11 04:11:00,
2013-02-10 21:21:00,5.0,2.0,-100.00,WNW,286,7.0,13.0,86,0.00,,,0.00,0.000000,,2013-02-11 04:21:00,
2013-02-10 21:31:00,5.0,2.0,-100.00,WNW,286,7.0,13.0,86,0.00,,,0.00,0.000000,,2013-02-11 04:31:00,
2013-02-10 21:40:00,3.0,-1.0,-100.00,West,281,6.0,13.0,84,0.00,,,0.00,0.000000,,2013-02-11 04:40:00,
2013-02-10 22:01:00,3.0,-1.0,-100.00,West,281,6.0,13.0,84,0.00,,,0.00,0.000000,,2013-02-11 05:01:00,
2013-02-10 22:11:00,3.0,-1.0,-100.00,West,281,6.0,13.0,84,0.00,,,0.00,0.000000,,2013-02-11 05:11:00,
2013-02-10 22:22:00,3.0,-1.0,-100.00,West,281,6.0,13.0,84,0.00,,,0.00,0.000000,,2013-02-11 05:22:00,
2013-02-10 22:31:00,3.0,-1.0,-100.00,West,281,6.0,13.0,84,0.00,,,0.00,0.000000,,2013-02-11 05:31:00,
2013-02-10 22:40:00,2.0,-2.0,-100.00,West,266,3.0,9.0,82,0.00,,,0.00,0.000000,,2013-02-11 05:40:00,
2013-02-10 23:01:00,2.0,-2.0,-100.00,West,266,3.0,9.0,82,0.00,,,0.00,0.000000,,2013-02-11 06:01:00,
2013-02-10 23:11:00,2.0,-2.0,-100.00,West,266,3.0,9.0,82,0.00,,,0.00,0.000000,,2013-02-11 06:11:00,
2013-02-10 23:21:00,2.0,-2.0,-100.00,West,266,3.0,9.0,82,0.00,,,0.00,0.000000,,2013-02-11 06:21:00,
2013-02-10 23:31:00,2.0,-2.0,-100.00,West,266,3.0,9.0,82,0.00,,,0.00,0.000000,,2013-02-11 06:31:00,
2013-02-10 23:40:00,3.0,-2.0,-100.00,SW,227,6.0,8.0,80,0.00,,,0.00,0.000000,,2013-02-11 06:40:00,